sensor_id;sensor_type;location;lat;lon;timestamp;temperature;humidity
490;DHT22;231;48.120;11.576;2023-08-08T00:01:53;11.30;47.50
490;DHT22;231;48.120;11.576;2023-08-08T00:04:20;11.50;46.50
490;DHT22;231;48.120;11.576;2023-08-08T00:06:47;11.60;45.20
490;DHT22;231;48.120;11.576;2023-08-08T00:09:13;11.70;43.50
490;DHT22;231;48.120;11.576;2023-08-08T00:11:42;11.80;41.40
490;DHT22;231;48.120;11.576;2023-08-08T00:14:09;11.90;39.70
490;DHT22;231;48.120;11.576;2023-08-08T00:16:36;12.00;38.50
490;DHT22;231;48.120;11.576;2023-08-08T00:19:03;12.10;37.10
490;DHT22;231;48.120;11.576;2023-08-08T00:21:30;12.20;35.80
490;DHT22;231;48.120;11.576;2023-08-08T00:23:57;12.30;34.70
490;DHT22;231;48.120;11.576;2023-08-08T00:26:24;12.40;33.80
490;DHT22;231;48.120;11.576;2023-08-08T00:28:52;12.40;32.50
490;DHT22;231;48.120;11.576;2023-08-08T00:31:19;12.50;31.60
490;DHT22;231;48.120;11.576;2023-08-08T00:33:46;12.50;31.20
490;DHT22;231;48.120;11.576;2023-08-08T00:36:12;12.60;31.00
490;DHT22;231;48.120;11.576;2023-08-08T00:38:39;12.60;30.00
490;DHT22;231;48.120;11.576;2023-08-08T00:41:06;12.70;29.70
490;DHT22;231;48.120;11.576;2023-08-08T00:43:33;12.70;29.30
490;DHT22;231;48.120;11.576;2023-08-08T00:46:02;12.80;29.10
490;DHT22;231;48.120;11.576;2023-08-08T00:48:32;12.80;28.70
490;DHT22;231;48.120;11.576;2023-08-08T00:50:59;12.80;28.40
490;DHT22;231;48.120;11.576;2023-08-08T00:53:26;12.80;28.00
490;DHT22;231;48.120;11.576;2023-08-08T00:55:56;12.90;27.90
490;DHT22;231;48.120;11.576;2023-08-08T00:58:25;12.90;27.60
490;DHT22;231;48.120;11.576;2023-08-08T01:00:52;12.90;27.60
490;DHT22;231;48.120;11.576;2023-08-08T01:03:21;12.90;27.30
490;DHT22;231;48.120;11.576;2023-08-08T01:05:53;12.90;27.20
490;DHT22;231;48.120;11.576;2023-08-08T01:08:23;12.80;27.20
490;DHT22;231;48.120;11.576;2023-08-08T01:10:53;12.80;27.50
490;DHT22;231;48.120;11.576;2023-08-08T01:13:22;12.70;27.80
490;DHT22;231;48.120;11.576;2023-08-08T01:15:50;12.70;28.20
490;DHT22;231;48.120;11.576;2023-08-08T01:18:20;12.60;28.60
490;DHT22;231;48.120;11.576;2023-08-08T01:20:48;12.60;28.70
490;DHT22;231;48.120;11.576;2023-08-08T01:23:23;12.60;28.70
490;DHT22;231;48.120;11.576;2023-08-08T01:25:52;12.60;28.70
490;DHT22;231;48.120;11.576;2023-08-08T01:28:21;12.60;28.80
490;DHT22;231;48.120;11.576;2023-08-08T01:30:48;12.60;29.00
490;DHT22;231;48.120;11.576;2023-08-08T01:33:15;12.50;29.60
490;DHT22;231;48.120;11.576;2023-08-08T01:35:45;12.40;29.20
490;DHT22;231;48.120;11.576;2023-08-08T01:38:17;12.30;29.60
490;DHT22;231;48.120;11.576;2023-08-08T01:40:46;12.20;30.00
490;DHT22;231;48.120;11.576;2023-08-08T01:43:15;12.10;30.60
490;DHT22;231;48.120;11.576;2023-08-08T01:45:43;12.10;31.60
490;DHT22;231;48.120;11.576;2023-08-08T01:48:11;11.90;32.10
490;DHT22;231;48.120;11.576;2023-08-08T01:50:38;11.80;32.70
490;DHT22;231;48.120;11.576;2023-08-08T01:53:05;11.80;33.70
490;DHT22;231;48.120;11.576;2023-08-08T01:55:32;11.60;34.20
490;DHT22;231;48.120;11.576;2023-08-08T01:57:59;11.60;34.90
490;DHT22;231;48.120;11.576;2023-08-08T02:00:27;11.50;35.60
490;DHT22;231;48.120;11.576;2023-08-08T02:02:54;11.40;36.60
490;DHT22;231;48.120;11.576;2023-08-08T02:05:21;11.30;37.60
490;DHT22;231;48.120;11.576;2023-08-08T02:07:48;11.20;38.50
490;DHT22;231;48.120;11.576;2023-08-08T02:10:15;11.10;39.60
490;DHT22;231;48.120;11.576;2023-08-08T02:12:42;11.00;40.60
490;DHT22;231;48.120;11.576;2023-08-08T02:15:09;11.00;41.40
490;DHT22;231;48.120;11.576;2023-08-08T02:17:38;10.90;42.10
490;DHT22;231;48.120;11.576;2023-08-08T02:20:06;10.90;42.50
490;DHT22;231;48.120;11.576;2023-08-08T02:22:33;10.90;43.20
490;DHT22;231;48.120;11.576;2023-08-08T02:25:00;10.80;43.30
490;DHT22;231;48.120;11.576;2023-08-08T02:27:27;10.80;43.80
490;DHT22;231;48.120;11.576;2023-08-08T02:29:54;10.80;44.60
490;DHT22;231;48.120;11.576;2023-08-08T02:32:23;10.70;45.10
490;DHT22;231;48.120;11.576;2023-08-08T02:34:51;10.60;46.40
490;DHT22;231;48.120;11.576;2023-08-08T02:37:18;10.60;46.10
490;DHT22;231;48.120;11.576;2023-08-08T02:39:45;10.50;46.20
490;DHT22;231;48.120;11.576;2023-08-08T02:42:12;10.50;46.50
490;DHT22;231;48.120;11.576;2023-08-08T02:44:38;10.50;46.90
490;DHT22;231;48.120;11.576;2023-08-08T02:47:06;10.40;46.70
490;DHT22;231;48.120;11.576;2023-08-08T02:49:33;10.40;47.50
490;DHT22;231;48.120;11.576;2023-08-08T02:52:01;10.30;48.40
490;DHT22;231;48.120;11.576;2023-08-08T02:54:28;10.30;49.60
490;DHT22;231;48.120;11.576;2023-08-08T02:56:55;10.20;50.60
490;DHT22;231;48.120;11.576;2023-08-08T02:59:22;10.20;51.70
490;DHT22;231;48.120;11.576;2023-08-08T03:01:49;10.10;53.30
490;DHT22;231;48.120;11.576;2023-08-08T03:04:16;10.10;53.60
490;DHT22;231;48.120;11.576;2023-08-08T03:06:42;10.00;54.50
490;DHT22;231;48.120;11.576;2023-08-08T03:09:11;10.00;55.60
490;DHT22;231;48.120;11.576;2023-08-08T03:11:38;9.90;57.30
490;DHT22;231;48.120;11.576;2023-08-08T03:14:07;9.90;58.20
490;DHT22;231;48.120;11.576;2023-08-08T03:16:34;9.90;59.00
490;DHT22;231;48.120;11.576;2023-08-08T03:19:01;9.90;59.70
490;DHT22;231;48.120;11.576;2023-08-08T03:21:28;9.80;60.50
490;DHT22;231;48.120;11.576;2023-08-08T03:23:56;9.80;62.10
490;DHT22;231;48.120;11.576;2023-08-08T03:26:24;9.90;64.10
490;DHT22;231;48.120;11.576;2023-08-08T03:28:51;10.00;64.00
490;DHT22;231;48.120;11.576;2023-08-08T03:31:19;10.10;63.50
490;DHT22;231;48.120;11.576;2023-08-08T03:33:46;10.20;61.80
490;DHT22;231;48.120;11.576;2023-08-08T03:36:13;10.30;60.00
490;DHT22;231;48.120;11.576;2023-08-08T03:38:41;10.50;57.20
490;DHT22;231;48.120;11.576;2023-08-08T03:41:10;10.60;54.60
490;DHT22;231;48.120;11.576;2023-08-08T03:43:38;10.80;52.40
490;DHT22;231;48.120;11.576;2023-08-08T03:46:05;10.90;49.90
490;DHT22;231;48.120;11.576;2023-08-08T03:48:32;11.00;48.10
490;DHT22;231;48.120;11.576;2023-08-08T03:50:59;11.10;46.10
490;DHT22;231;48.120;11.576;2023-08-08T03:53:26;11.20;44.20
490;DHT22;231;48.120;11.576;2023-08-08T03:55:53;11.30;42.80
490;DHT22;231;48.120;11.576;2023-08-08T03:58:20;11.30;41.60
490;DHT22;231;48.120;11.576;2023-08-08T04:00:48;11.40;40.80
490;DHT22;231;48.120;11.576;2023-08-08T04:03:17;11.50;40.60
490;DHT22;231;48.120;11.576;2023-08-08T04:05:44;11.50;39.20
490;DHT22;231;48.120;11.576;2023-08-08T04:08:13;11.60;38.70
490;DHT22;231;48.120;11.576;2023-08-08T04:10:40;11.60;38.10
490;DHT22;231;48.120;11.576;2023-08-08T04:13:07;11.70;37.70
490;DHT22;231;48.120;11.576;2023-08-08T04:15:34;11.80;37.00
490;DHT22;231;48.120;11.576;2023-08-08T04:18:03;11.90;36.60
490;DHT22;231;48.120;11.576;2023-08-08T04:20:32;11.90;36.40
490;DHT22;231;48.120;11.576;2023-08-08T04:22:59;12.00;36.00
490;DHT22;231;48.120;11.576;2023-08-08T04:25:26;12.00;35.60
490;DHT22;231;48.120;11.576;2023-08-08T04:27:54;12.10;35.20
490;DHT22;231;48.120;11.576;2023-08-08T04:30:21;12.10;35.10
490;DHT22;231;48.120;11.576;2023-08-08T04:32:48;12.20;35.70
490;DHT22;231;48.120;11.576;2023-08-08T04:35:16;12.20;34.60
490;DHT22;231;48.120;11.576;2023-08-08T04:37:46;12.30;34.20
490;DHT22;231;48.120;11.576;2023-08-08T04:40:13;12.30;33.80
490;DHT22;231;48.120;11.576;2023-08-08T04:42:41;12.40;33.60
490;DHT22;231;48.120;11.576;2023-08-08T04:45:09;12.40;33.40
490;DHT22;231;48.120;11.576;2023-08-08T04:47:36;12.50;33.00
490;DHT22;231;48.120;11.576;2023-08-08T04:50:03;12.60;32.50
490;DHT22;231;48.120;11.576;2023-08-08T04:52:32;12.70;32.20
490;DHT22;231;48.120;11.576;2023-08-08T04:54:59;12.70;31.40
490;DHT22;231;48.120;11.576;2023-08-08T04:57:26;12.90;30.60
490;DHT22;231;48.120;11.576;2023-08-08T04:59:53;12.90;30.00
490;DHT22;231;48.120;11.576;2023-08-08T10:04:45;45.50;1.00
490;DHT22;231;48.120;11.576;2023-08-08T11:23:22;36.80;1.00
490;DHT22;231;48.120;11.576;2023-08-08T11:25:50;37.70;1.00
490;DHT22;231;48.120;11.576;2023-08-08T11:28:17;37.80;1.00
490;DHT22;231;48.120;11.576;2023-08-08T11:30:45;38.20;1.00
490;DHT22;231;48.120;11.576;2023-08-08T11:33:13;38.80;1.00
490;DHT22;231;48.120;11.576;2023-08-08T11:35:45;38.60;1.00
490;DHT22;231;48.120;11.576;2023-08-08T11:38:15;38.50;1.00
490;DHT22;231;48.120;11.576;2023-08-08T11:40:44;38.60;1.00
490;DHT22;231;48.120;11.576;2023-08-08T11:43:12;39.00;1.00
490;DHT22;231;48.120;11.576;2023-08-08T11:45:39;39.60;1.00
490;DHT22;231;48.120;11.576;2023-08-08T11:48:08;40.30;1.00
490;DHT22;231;48.120;11.576;2023-08-08T11:50:37;40.70;1.00
490;DHT22;231;48.120;11.576;2023-08-08T15:41:27;23.50;1.00
490;DHT22;231;48.120;11.576;2023-08-08T15:43:54;23.50;1.00
490;DHT22;231;48.120;11.576;2023-08-08T15:48:50;23.90;1.00
490;DHT22;231;48.120;11.576;2023-08-08T15:51:17;24.50;1.00
490;DHT22;231;48.120;11.576;2023-08-08T15:56:11;24.90;1.00
490;DHT22;231;48.120;11.576;2023-08-08T15:58:39;24.70;1.00
490;DHT22;231;48.120;11.576;2023-08-08T16:01:06;26.20;1.00
490;DHT22;231;48.120;11.576;2023-08-08T16:03:33;24.50;1.00
490;DHT22;231;48.120;11.576;2023-08-08T16:08:28;24.40;1.80
490;DHT22;231;48.120;11.576;2023-08-08T16:13:22;24.10;1.00
490;DHT22;231;48.120;11.576;2023-08-08T16:15:50;24.00;1.00
490;DHT22;231;48.120;11.576;2023-08-08T16:18:17;23.90;1.00
490;DHT22;231;48.120;11.576;2023-08-08T16:20:44;23.90;1.00
490;DHT22;231;48.120;11.576;2023-08-08T18:14:07;18.60;1.50
490;DHT22;231;48.120;11.576;2023-08-08T18:16:34;18.90;2.30
490;DHT22;231;48.120;11.576;2023-08-08T18:19:02;18.60;1.50
490;DHT22;231;48.120;11.576;2023-08-08T18:21:31;18.70;3.00
490;DHT22;231;48.120;11.576;2023-08-08T18:23:59;18.50;2.50
490;DHT22;231;48.120;11.576;2023-08-08T18:28:59;18.30;2.60
490;DHT22;231;48.120;11.576;2023-08-08T18:31:33;17.80;8.70
490;DHT22;231;48.120;11.576;2023-08-08T18:34:04;18.00;4.00
490;DHT22;231;48.120;11.576;2023-08-08T18:36:36;18.00;10.70
490;DHT22;231;48.120;11.576;2023-08-08T18:39:21;17.80;5.30
490;DHT22;231;48.120;11.576;2023-08-08T18:41:58;17.70;4.80
490;DHT22;231;48.120;11.576;2023-08-08T18:47:04;17.50;5.00
490;DHT22;231;48.120;11.576;2023-08-08T18:49:38;17.40;7.60
490;DHT22;231;48.120;11.576;2023-08-08T18:52:15;17.30;8.50
490;DHT22;231;48.120;11.576;2023-08-08T19:02:29;16.70;9.00
490;DHT22;231;48.120;11.576;2023-08-08T19:14:51;16.40;10.70
490;DHT22;231;48.120;11.576;2023-08-08T19:20:38;16.30;11.00
490;DHT22;231;48.120;11.576;2023-08-08T19:23:05;16.30;11.50
490;DHT22;231;48.120;11.576;2023-08-08T19:25:33;16.20;12.30
490;DHT22;231;48.120;11.576;2023-08-08T19:28:00;16.20;11.90
490;DHT22;231;48.120;11.576;2023-08-08T19:30:27;16.10;12.50
490;DHT22;231;48.120;11.576;2023-08-08T19:32:54;16.10;12.30
490;DHT22;231;48.120;11.576;2023-08-08T19:35:27;16.10;12.10
490;DHT22;231;48.120;11.576;2023-08-08T19:38:00;16.10;12.70
490;DHT22;231;48.120;11.576;2023-08-08T19:40:33;16.20;13.30
490;DHT22;231;48.120;11.576;2023-08-08T19:43:00;16.40;13.20
490;DHT22;231;48.120;11.576;2023-08-08T19:45:33;16.30;12.70
490;DHT22;231;48.120;11.576;2023-08-08T19:48:04;16.50;12.30
490;DHT22;231;48.120;11.576;2023-08-08T19:50:32;16.70;16.00
490;DHT22;231;48.120;11.576;2023-08-08T19:53:07;16.80;9.80
490;DHT22;231;48.120;11.576;2023-08-08T19:55:46;16.80;10.20
490;DHT22;231;48.120;11.576;2023-08-08T19:58:21;16.90;9.70
490;DHT22;231;48.120;11.576;2023-08-08T20:01:10;18.80;10.20
490;DHT22;231;48.120;11.576;2023-08-08T20:03:54;17.10;9.50
490;DHT22;231;48.120;11.576;2023-08-08T20:06:22;17.70;16.10
490;DHT22;231;48.120;11.576;2023-08-08T20:08:51;17.60;20.20
490;DHT22;231;48.120;11.576;2023-08-08T20:11:20;14.90;7.70
490;DHT22;231;48.120;11.576;2023-08-08T20:13:49;17.30;8.50
490;DHT22;231;48.120;11.576;2023-08-08T22:02:21;14.20;20.40
490;DHT22;231;48.120;11.576;2023-08-08T22:04:48;14.00;20.80
490;DHT22;231;48.120;11.576;2023-08-08T22:07:16;14.10;20.80
490;DHT22;231;48.120;11.576;2023-08-08T22:12:11;13.70;28.60
490;DHT22;231;48.120;11.576;2023-08-08T22:14:38;14.00;21.90
490;DHT22;231;48.120;11.576;2023-08-08T22:17:05;14.00;21.60
490;DHT22;231;48.120;11.576;2023-08-08T22:19:33;13.90;21.70
490;DHT22;231;48.120;11.576;2023-08-08T22:22:00;13.90;21.90
490;DHT22;231;48.120;11.576;2023-08-08T22:24:27;13.90;22.50
490;DHT22;231;48.120;11.576;2023-08-08T22:26:57;13.80;22.60
490;DHT22;231;48.120;11.576;2023-08-08T22:29:24;13.80;22.70
490;DHT22;231;48.120;11.576;2023-08-08T22:31:52;13.70;22.80
490;DHT22;231;48.120;11.576;2023-08-08T22:34:19;13.70;23.10
490;DHT22;231;48.120;11.576;2023-08-08T22:36:47;13.60;23.30
490;DHT22;231;48.120;11.576;2023-08-08T22:39:14;13.60;23.80
490;DHT22;231;48.120;11.576;2023-08-08T22:41:42;13.60;23.90
490;DHT22;231;48.120;11.576;2023-08-08T22:46:36;13.50;24.20
490;DHT22;231;48.120;11.576;2023-08-08T22:49:02;13.50;24.90
490;DHT22;231;48.120;11.576;2023-08-08T22:51:29;13.40;25.00
490;DHT22;231;48.120;11.576;2023-08-08T22:53:58;13.40;25.30
490;DHT22;231;48.120;11.576;2023-08-08T22:56:24;13.40;25.90
490;DHT22;231;48.120;11.576;2023-08-08T22:58:51;13.30;26.00
490;DHT22;231;48.120;11.576;2023-08-08T23:01:18;13.30;26.70
490;DHT22;231;48.120;11.576;2023-08-08T23:03:46;13.30;26.40
490;DHT22;231;48.120;11.576;2023-08-08T23:06:13;13.30;26.90
490;DHT22;231;48.120;11.576;2023-08-08T23:08:40;13.30;26.70
490;DHT22;231;48.120;11.576;2023-08-08T23:11:08;13.30;26.70
490;DHT22;231;48.120;11.576;2023-08-08T23:13:34;13.40;26.50
490;DHT22;231;48.120;11.576;2023-08-08T23:16:01;13.40;26.40
490;DHT22;231;48.120;11.576;2023-08-08T23:20:55;13.50;25.50
490;DHT22;231;48.120;11.576;2023-08-08T23:23:22;13.60;25.90
490;DHT22;231;48.120;11.576;2023-08-08T23:25:50;13.70;25.70
490;DHT22;231;48.120;11.576;2023-08-08T23:28:18;13.80;25.70
490;DHT22;231;48.120;11.576;2023-08-08T23:33:13;13.90;24.00
490;DHT22;231;48.120;11.576;2023-08-08T23:35:45;14.50;41.00
490;DHT22;231;48.120;11.576;2023-08-08T23:43:07;13.70;34.70
490;DHT22;231;48.120;11.576;2023-08-08T23:45:36;13.70;24.70
490;DHT22;231;48.120;11.576;2023-08-08T23:48:04;13.70;36.90
